createdAt,value
2018-10-17T00:00:12.202Z,53.70
2018-10-17T00:02:41.048Z,53.90
2018-10-17T00:05:10.247Z,54.10
2018-10-17T00:07:39.024Z,54.10
2018-10-17T00:10:09.062Z,54.10
2018-10-17T00:12:37.708Z,54.30
2018-10-17T00:15:06.601Z,54.30
2018-10-17T00:17:35.871Z,54.10
2018-10-17T00:20:04.744Z,54.60
2018-10-17T00:22:33.344Z,54.10
2018-10-17T00:25:01.986Z,54.60
2018-10-17T00:27:30.609Z,54.70
2018-10-17T00:29:59.143Z,54.80
2018-10-17T00:32:27.743Z,54.80
2018-10-17T00:34:56.314Z,54.80
2018-10-17T00:37:24.923Z,54.80
2018-10-17T00:39:53.475Z,54.80
2018-10-17T00:42:22.031Z,54.90
2018-10-17T00:44:50.611Z,54.90
2018-10-17T00:47:19.192Z,54.90
2018-10-17T00:49:47.774Z,54.90
2018-10-17T00:52:16.348Z,54.90
2018-10-17T00:54:44.931Z,54.90
2018-10-17T00:57:13.530Z,54.90
2018-10-17T00:59:42.122Z,54.90
2018-10-17T01:02:10.703Z,54.90
2018-10-17T01:04:39.271Z,54.90
2018-10-17T01:07:07.871Z,54.90
2018-10-17T01:09:36.406Z,54.90
2018-10-17T01:12:05.162Z,54.90
2018-10-17T01:14:33.735Z,54.90
2018-10-17T01:17:02.365Z,54.90
2018-10-17T01:19:30.910Z,55.00
2018-10-17T01:21:59.536Z,54.90
2018-10-17T01:24:28.659Z,54.90
2018-10-17T01:26:57.233Z,54.90
2018-10-17T01:29:25.966Z,55.50
2018-10-17T01:31:54.505Z,54.90
2018-10-17T01:34:23.148Z,55.00
2018-10-17T01:36:51.761Z,54.90
2018-10-17T01:39:20.335Z,55.00
2018-10-17T01:41:48.936Z,55.00
2018-10-17T01:44:17.524Z,55.00
2018-10-17T01:46:46.111Z,55.00
2018-10-17T01:49:14.748Z,55.00
2018-10-17T01:51:43.304Z,55.50
2018-10-17T01:54:11.868Z,54.90
2018-10-17T01:56:40.494Z,54.40
2018-10-17T01:59:09.159Z,55.00
2018-10-17T02:01:37.652Z,54.80
2018-10-17T02:04:06.229Z,55.50
2018-10-17T02:06:34.799Z,54.90
2018-10-17T02:09:04.190Z,55.00
2018-10-17T02:11:32.820Z,55.00
2018-10-17T02:14:01.430Z,55.00
2018-10-17T02:16:29.987Z,54.90
2018-10-17T02:18:58.565Z,55.00
2018-10-17T02:21:27.136Z,55.00
2018-10-17T02:23:55.729Z,55.00
2018-10-17T02:26:24.299Z,54.90
2018-10-17T02:28:54.030Z,54.40
2018-10-17T02:31:22.682Z,55.00
2018-10-17T02:33:51.252Z,55.00
2018-10-17T02:36:19.839Z,55.00
2018-10-17T02:38:48.411Z,54.90
2018-10-17T02:41:17.074Z,55.00
2018-10-17T02:43:45.591Z,54.90
2018-10-17T02:46:14.162Z,54.90
2018-10-17T02:48:42.711Z,55.00
2018-10-17T02:51:11.253Z,55.00
2018-10-17T02:53:39.876Z,54.90
2018-10-17T02:56:08.487Z,55.00
2018-10-17T02:58:37.081Z,55.00
2018-10-17T03:01:05.927Z,55.00
2018-10-17T03:03:34.465Z,54.90
2018-10-17T03:06:03.031Z,54.90
2018-10-17T03:08:31.636Z,54.90
2018-10-17T03:11:00.252Z,54.90
2018-10-17T03:13:28.867Z,55.00
2018-10-17T03:15:57.491Z,54.90
2018-10-17T03:18:26.056Z,55.00
2018-10-17T03:20:54.652Z,55.00
2018-10-17T03:23:23.265Z,55.00
2018-10-17T03:25:51.860Z,55.00
2018-10-17T03:28:20.479Z,55.00
2018-10-17T03:30:49.281Z,54.90
2018-10-17T03:33:18.038Z,54.90
2018-10-17T03:35:46.649Z,54.90
2018-10-17T03:38:15.272Z,54.90
2018-10-17T03:40:43.877Z,54.40
2018-10-17T03:43:12.556Z,55.00
2018-10-17T03:45:41.051Z,55.00
2018-10-17T03:48:09.633Z,54.90
2018-10-17T03:50:38.252Z,54.40
2018-10-17T03:53:06.825Z,54.40
2018-10-17T03:55:35.376Z,54.30
2018-10-17T03:58:03.927Z,54.90
2018-10-17T04:00:32.539Z,55.00
2018-10-17T04:03:01.229Z,54.90
2018-10-17T04:05:29.759Z,54.40
2018-10-17T04:07:58.331Z,54.90
2018-10-17T04:10:26.953Z,54.90
2018-10-17T04:12:55.555Z,54.30
2018-10-17T04:15:24.124Z,54.90
2018-10-17T04:17:52.704Z,54.90
2018-10-17T04:20:21.288Z,54.90
2018-10-17T04:22:53.390Z,55.00
2018-10-17T04:25:21.919Z,54.90
2018-10-17T04:27:50.998Z,54.90
2018-10-17T04:30:19.605Z,55.00
2018-10-17T04:32:48.168Z,54.90
2018-10-17T04:35:16.917Z,54.30
2018-10-17T04:37:45.532Z,54.90
2018-10-17T04:40:14.128Z,54.90
2018-10-17T04:42:42.773Z,54.90
2018-10-17T04:45:11.593Z,55.10
2018-10-17T04:47:40.179Z,54.10
2018-10-17T04:50:10.204Z,51.70
2018-10-17T04:52:39.187Z,51.20
2018-10-17T04:55:09.232Z,51.00
2018-10-17T04:57:37.820Z,50.60
2018-10-17T05:00:08.601Z,50.10
2018-10-17T05:02:37.180Z,49.50
2018-10-17T05:05:05.834Z,49.00
2018-10-17T05:07:34.456Z,48.50
2018-10-17T05:10:03.060Z,47.90
2018-10-17T05:12:31.636Z,47.60
2018-10-17T05:15:00.609Z,47.20
2018-10-17T05:17:29.200Z,46.90
2018-10-17T05:19:58.043Z,46.60
2018-10-17T05:22:26.675Z,45.70
2018-10-17T05:24:55.260Z,46.10
2018-10-17T05:27:23.864Z,45.90
2018-10-17T05:29:52.555Z,45.10
2018-10-17T05:32:21.040Z,45.80
2018-10-17T05:34:49.640Z,45.80
2018-10-17T05:37:18.298Z,45.80
2018-10-17T05:39:46.831Z,46.00
2018-10-17T05:42:15.424Z,46.20
2018-10-17T05:44:44.025Z,46.70
2018-10-17T05:47:12.634Z,47.10
2018-10-17T05:49:41.257Z,47.50
2018-10-17T05:52:09.804Z,47.90
2018-10-17T05:54:38.389Z,48.40
2018-10-17T05:57:07.391Z,48.70
2018-10-17T05:59:36.057Z,49.00
2018-10-17T06:02:16.569Z,49.40
2018-10-17T06:04:45.070Z,49.70
2018-10-17T06:07:13.872Z,50.10
2018-10-17T06:09:42.521Z,50.30
2018-10-17T06:12:11.067Z,50.50
2018-10-17T06:14:39.671Z,50.60
2018-10-17T06:17:08.324Z,50.80
2018-10-17T06:19:36.979Z,51.60
2018-10-17T06:22:05.656Z,51.20
2018-10-17T06:24:34.291Z,51.40
2018-10-17T06:27:03.279Z,51.80
2018-10-17T06:29:32.164Z,52.40
2018-10-17T06:32:00.744Z,52.40
2018-10-17T06:34:29.374Z,52.90
2018-10-17T06:36:58.040Z,53.50
2018-10-17T06:39:26.573Z,52.70
2018-10-17T06:41:55.173Z,53.30
2018-10-17T06:44:23.759Z,53.40
2018-10-17T06:46:52.372Z,53.30
2018-10-17T06:49:20.990Z,53.00
2018-10-17T06:51:49.473Z,53.40
2018-10-17T06:54:18.152Z,53.40
2018-10-17T06:56:46.699Z,53.30
2018-10-17T06:59:15.319Z,53.30
2018-10-17T07:01:43.989Z,53.30
2018-10-17T07:04:12.511Z,53.30
2018-10-17T07:06:41.083Z,53.30
2018-10-17T07:09:10.344Z,53.30
2018-10-17T07:11:39.304Z,53.10
2018-10-17T07:14:07.908Z,53.00
2018-10-17T07:16:36.463Z,53.00
2018-10-17T07:19:05.332Z,53.10
2018-10-17T07:21:33.960Z,53.10
2018-10-17T07:24:02.540Z,53.10
2018-10-17T07:26:31.560Z,53.00
2018-10-17T07:29:00.212Z,52.50
2018-10-17T07:31:28.773Z,53.00
2018-10-17T07:33:57.379Z,53.10
2018-10-17T07:36:26.933Z,53.10
2018-10-17T07:38:55.503Z,53.10
2018-10-17T07:41:24.056Z,53.20
2018-10-17T07:43:52.664Z,53.20
2018-10-17T07:46:21.271Z,53.20
2018-10-17T07:48:49.893Z,53.20
2018-10-17T07:51:18.486Z,53.20
2018-10-17T07:53:47.091Z,53.20
2018-10-17T07:56:15.706Z,52.60
2018-10-17T07:58:44.296Z,53.20
2018-10-17T08:01:12.860Z,53.20
2018-10-17T08:03:41.447Z,53.20
2018-10-17T08:06:10.092Z,53.20
2018-10-17T08:08:38.688Z,53.20
2018-10-17T08:11:07.645Z,53.30
2018-10-17T08:13:36.822Z,53.30
2018-10-17T08:16:06.105Z,53.20
2018-10-17T08:18:34.865Z,53.30
2018-10-17T08:21:03.432Z,53.20
2018-10-17T08:23:32.009Z,53.30
2018-10-17T08:26:01.459Z,53.30
2018-10-17T08:28:30.179Z,53.30
2018-10-17T08:30:58.773Z,53.30
2018-10-17T08:33:27.742Z,53.30
2018-10-17T08:35:56.695Z,53.40
2018-10-17T08:38:25.178Z,53.40
2018-10-17T08:40:53.859Z,53.40
2018-10-17T08:43:22.385Z,53.60
2018-10-17T08:48:19.675Z,54.70
2018-10-17T08:50:48.984Z,55.10
2018-10-17T08:53:17.521Z,56.30
2018-10-17T08:55:46.088Z,56.50
2018-10-17T08:58:14.690Z,56.00
2018-10-17T09:00:43.497Z,56.00
2018-10-17T09:03:12.077Z,56.10
2018-10-17T09:05:40.664Z,56.20
2018-10-17T09:08:09.259Z,56.00
2018-10-17T09:10:37.816Z,56.20
2018-10-17T09:13:06.386Z,56.30
2018-10-17T09:15:38.380Z,56.30
2018-10-17T09:18:03.685Z,56.40
2018-10-17T09:20:32.567Z,56.20
2018-10-17T09:23:00.920Z,56.50
2018-10-17T09:25:29.505Z,56.50
2018-10-17T09:27:58.126Z,56.70
2018-10-17T09:30:26.788Z,56.70
2018-10-17T09:32:55.297Z,56.60
2018-10-17T09:35:23.950Z,56.50
2018-10-17T09:37:52.532Z,56.70
2018-10-17T09:40:21.134Z,56.70
2018-10-17T09:42:49.721Z,56.50
2018-10-17T09:45:18.324Z,56.40
2018-10-17T09:47:46.997Z,56.60
2018-10-17T09:50:15.581Z,56.50
2018-10-17T09:52:44.183Z,56.50
2018-10-17T09:55:12.768Z,56.40
2018-10-17T09:57:41.391Z,56.50
2018-10-17T10:00:15.400Z,56.30
2018-10-17T10:02:43.937Z,56.50
2018-10-17T10:05:12.515Z,56.50
2018-10-17T10:07:41.096Z,56.40
2018-10-17T10:10:09.727Z,55.70
2018-10-17T10:12:38.284Z,55.70
2018-10-17T10:15:06.893Z,55.10
2018-10-17T10:20:03.840Z,54.80
2018-10-17T10:22:32.424Z,55.40
2018-10-17T10:25:01.193Z,55.00
2018-10-17T10:27:30.524Z,55.20
2018-10-17T10:29:59.207Z,55.40
2018-10-17T10:32:27.731Z,54.70
2018-10-17T10:34:56.284Z,54.80
2018-10-17T10:37:24.873Z,55.30
2018-10-17T10:39:53.555Z,55.20
2018-10-17T10:42:22.470Z,55.20
2018-10-17T10:44:51.204Z,55.50
2018-10-17T10:47:19.738Z,55.40
2018-10-17T10:49:48.327Z,55.10
2018-10-17T10:52:16.944Z,55.00
2018-10-17T10:54:45.547Z,54.80
2018-10-17T10:57:14.194Z,54.90
2018-10-17T10:59:42.770Z,54.70
2018-10-17T11:02:11.389Z,54.70
2018-10-17T11:04:39.989Z,54.70
2018-10-17T11:07:08.539Z,54.80
2018-10-17T11:09:37.168Z,54.60
2018-10-17T11:12:06.140Z,54.60
2018-10-17T11:14:34.948Z,54.60
2018-10-17T11:17:03.418Z,54.60
2018-10-17T11:19:32.759Z,54.60
2018-10-17T11:22:01.404Z,54.50
2018-10-17T11:24:29.993Z,54.70
2018-10-17T11:26:58.743Z,54.70
2018-10-17T11:29:28.228Z,54.50
2018-10-17T11:31:56.844Z,54.60
2018-10-17T11:34:25.436Z,54.40
2018-10-17T11:36:54.041Z,54.30
2018-10-17T11:39:22.627Z,54.50
2018-10-17T11:41:51.203Z,54.40
2018-10-17T11:44:19.802Z,54.00
2018-10-17T11:46:48.473Z,54.00
2018-10-17T11:49:17.817Z,54.60
2018-10-17T11:51:48.751Z,54.70
2018-10-17T11:54:18.406Z,54.80
2018-10-17T11:56:47.022Z,54.90
2018-10-17T11:59:15.760Z,55.00
2018-10-17T12:01:44.268Z,54.90
2018-10-17T12:04:13.063Z,55.00
2018-10-17T12:06:41.557Z,55.10
2018-10-17T12:09:10.487Z,55.10
2018-10-17T12:11:40.190Z,55.10
2018-10-17T12:14:08.948Z,55.30
2018-10-17T12:16:38.499Z,54.10
2018-10-17T12:21:36.260Z,54.20
2018-10-17T12:24:04.824Z,54.90
2018-10-17T12:26:33.709Z,55.70
2018-10-17T12:29:02.244Z,55.50
2018-10-17T12:31:30.819Z,55.00
2018-10-17T12:33:59.665Z,55.20
2018-10-17T12:36:29.298Z,55.30
2018-10-17T12:38:57.915Z,55.30
2018-10-17T12:41:27.332Z,55.00
2018-10-17T12:43:56.484Z,55.00
2018-10-17T12:46:25.144Z,55.10
2018-10-17T12:48:53.845Z,55.00
2018-10-17T12:51:23.699Z,55.00
2018-10-17T12:53:52.276Z,54.90
2018-10-17T12:56:20.866Z,54.90
2018-10-17T12:58:49.416Z,54.90
2018-10-17T13:01:18.348Z,54.80
2018-10-17T13:03:46.964Z,54.80
2018-10-17T13:06:15.536Z,54.70
2018-10-17T13:08:44.103Z,54.80
2018-10-17T13:11:12.799Z,54.80
2018-10-17T13:13:41.248Z,54.60
2018-10-17T13:16:10.132Z,55.30
2018-10-17T13:18:38.754Z,54.60
2018-10-17T13:21:07.759Z,54.60
2018-10-17T13:23:36.331Z,54.70
2018-10-17T13:26:05.716Z,54.70
2018-10-17T13:28:34.296Z,54.70
2018-10-17T13:31:02.934Z,54.80
2018-10-17T13:33:31.520Z,54.70
2018-10-17T13:36:00.081Z,54.60
2018-10-17T13:38:28.695Z,54.60
2018-10-17T13:40:57.258Z,54.70
2018-10-17T13:43:25.871Z,54.60
2018-10-17T13:45:54.528Z,54.50
2018-10-17T13:48:23.099Z,54.40
2018-10-17T13:50:51.719Z,54.30
2018-10-17T13:53:20.296Z,54.30
2018-10-17T13:55:48.900Z,54.30
2018-10-17T13:58:17.513Z,54.20
2018-10-17T14:00:46.093Z,54.20
2018-10-17T14:03:14.661Z,54.20
2018-10-17T14:05:43.222Z,54.20
2018-10-17T14:08:11.809Z,54.10
2018-10-17T14:10:40.391Z,54.20
2018-10-17T14:13:08.980Z,54.10
2018-10-17T14:15:37.568Z,54.20
2018-10-17T14:18:06.414Z,54.10
2018-10-17T14:20:35.019Z,54.10
2018-10-17T14:23:03.608Z,54.10
2018-10-17T14:25:32.201Z,54.20
2018-10-17T14:28:00.836Z,54.10
2018-10-17T14:30:29.624Z,54.10
2018-10-17T14:32:58.311Z,54.10
2018-10-17T14:35:26.895Z,54.10
2018-10-17T14:37:55.556Z,53.60
2018-10-17T14:40:24.064Z,54.10
2018-10-17T14:42:52.663Z,54.10
2018-10-17T14:45:21.229Z,54.00
2018-10-17T14:47:49.816Z,53.50
2018-10-17T14:50:18.444Z,54.00
2018-10-17T14:52:47.139Z,54.10
2018-10-17T14:55:15.706Z,54.10
2018-10-17T14:57:44.277Z,54.00
2018-10-17T15:00:14.860Z,54.00
2018-10-17T15:02:43.762Z,53.50
2018-10-17T15:05:12.489Z,54.00
2018-10-17T15:07:41.953Z,54.00
2018-10-17T15:10:10.541Z,54.10
2018-10-17T15:12:39.213Z,54.10
2018-10-17T15:15:09.292Z,54.10
2018-10-17T15:17:37.907Z,54.10
2018-10-17T15:20:06.796Z,54.20
2018-10-17T15:22:35.355Z,54.10
2018-10-17T15:25:03.921Z,54.20
2018-10-17T15:27:32.506Z,54.20
2018-10-17T15:30:01.240Z,54.20
2018-10-17T15:32:29.744Z,54.20
2018-10-17T15:34:58.355Z,54.10
2018-10-17T15:37:26.976Z,54.10
2018-10-17T15:39:55.803Z,53.60
2018-10-17T15:42:24.411Z,54.10
2018-10-17T15:44:53.105Z,56.10
2018-10-17T15:47:21.703Z,57.80
2018-10-17T15:49:50.295Z,59.10
2018-10-17T15:52:18.898Z,55.90
2018-10-17T15:54:47.531Z,55.70
2018-10-17T15:57:16.245Z,55.50
2018-10-17T15:59:44.710Z,55.00
2018-10-17T16:02:13.356Z,54.90
2018-10-17T16:04:41.890Z,54.90
2018-10-17T16:07:10.496Z,54.70
2018-10-17T16:09:39.057Z,54.60
2018-10-17T16:12:07.687Z,54.80
2018-10-17T16:14:36.268Z,54.60
2018-10-17T16:17:05.277Z,54.60
2018-10-17T16:19:33.863Z,54.50
2018-10-17T16:22:02.524Z,54.00
2018-10-17T16:24:31.176Z,54.20
2018-10-17T16:26:59.765Z,54.80
2018-10-17T16:29:28.344Z,54.80
2018-10-17T16:31:57.020Z,54.90
2018-10-17T16:34:26.184Z,54.90
2018-10-17T16:36:54.799Z,54.90
2018-10-17T16:39:23.411Z,54.80
2018-10-17T16:41:51.998Z,54.80
2018-10-17T16:44:20.591Z,54.90
2018-10-17T16:46:49.193Z,54.70
2018-10-17T16:49:17.831Z,55.00
2018-10-17T16:51:46.419Z,54.60
2018-10-17T16:54:15.161Z,54.90
2018-10-17T16:56:43.646Z,55.10
2018-10-17T16:59:12.196Z,55.30
2018-10-17T17:01:40.819Z,55.30
2018-10-17T17:04:09.503Z,55.60
2018-10-17T17:06:38.093Z,55.50
2018-10-17T17:09:08.557Z,55.90
2018-10-17T17:11:37.196Z,55.50
2018-10-17T17:14:05.867Z,55.10
2018-10-17T17:16:34.455Z,54.60
2018-10-17T17:19:03.100Z,54.10
2018-10-17T17:21:31.683Z,53.70
2018-10-17T17:24:00.321Z,52.80
2018-10-17T17:26:28.907Z,52.10
2018-10-17T17:28:57.519Z,51.60
2018-10-17T17:31:26.660Z,50.90
2018-10-17T17:33:55.248Z,50.50
2018-10-17T17:36:23.909Z,48.90
2018-10-17T17:38:52.490Z,49.30
2018-10-17T17:41:21.079Z,48.90
2018-10-17T17:43:49.644Z,47.90
2018-10-17T17:46:18.210Z,48.40
2018-10-17T17:48:46.836Z,47.80
2018-10-17T17:51:15.448Z,47.60
2018-10-17T17:53:44.067Z,47.40
2018-10-17T17:56:12.665Z,47.10
2018-10-17T17:58:41.343Z,47.10
2018-10-17T18:01:09.917Z,47.00
2018-10-17T18:03:38.527Z,46.10
2018-10-17T18:06:07.127Z,46.70
2018-10-17T18:08:35.719Z,46.60
2018-10-17T18:11:16.459Z,46.50
2018-10-17T18:13:45.067Z,46.40
2018-10-17T18:16:13.817Z,46.30
2018-10-17T18:18:42.935Z,46.10
2018-10-17T18:21:11.863Z,46.00
2018-10-17T18:23:40.876Z,46.00
2018-10-17T18:26:09.816Z,46.00
2018-10-17T18:28:38.648Z,46.10
2018-10-17T18:31:07.224Z,46.00
2018-10-17T18:33:35.910Z,45.50
2018-10-17T18:36:05.958Z,45.30
2018-10-17T18:38:34.811Z,45.20
2018-10-17T18:41:04.258Z,45.80
2018-10-17T18:43:33.387Z,46.20
2018-10-17T18:46:02.014Z,46.20
2018-10-17T18:48:30.605Z,46.40
2018-10-17T18:51:00.213Z,46.30
2018-10-17T18:53:28.772Z,46.60
2018-10-17T18:55:57.402Z,46.70
2018-10-17T18:58:26.716Z,46.60
2018-10-17T19:00:55.471Z,46.90
2018-10-17T19:03:24.113Z,46.90
2018-10-17T19:05:52.847Z,46.70
2018-10-17T19:08:21.722Z,46.50
2018-10-17T19:10:50.356Z,46.40
2018-10-17T19:13:19.010Z,46.10
2018-10-17T19:15:47.661Z,46.60
2018-10-17T19:18:16.372Z,46.80
2018-10-17T19:20:45.256Z,46.00
2018-10-17T19:23:13.869Z,45.70
2018-10-17T19:25:42.472Z,46.20
2018-10-17T19:28:11.872Z,46.20
2018-10-17T19:30:42.060Z,46.30
2018-10-17T19:33:10.727Z,46.10
2018-10-17T19:35:39.572Z,46.20
2018-10-17T19:38:08.311Z,45.60
2018-10-17T19:40:36.935Z,46.10
2018-10-17T19:43:05.805Z,46.10
2018-10-17T19:45:34.521Z,46.20
2018-10-17T19:48:03.459Z,46.10
2018-10-17T19:50:32.168Z,46.10
2018-10-17T19:53:00.853Z,45.50
2018-10-17T19:55:30.041Z,46.00
2018-10-17T19:57:58.653Z,45.90
2018-10-17T20:00:27.257Z,45.70
2018-10-17T20:02:56.444Z,45.40
2018-10-17T20:05:25.071Z,45.90
2018-10-17T20:07:53.874Z,45.90
2018-10-17T20:10:22.615Z,45.20
2018-10-17T20:12:51.271Z,45.40
2018-10-17T20:15:20.054Z,45.90
2018-10-17T20:17:51.323Z,45.10
2018-10-17T20:20:20.168Z,45.70
2018-10-17T20:22:48.816Z,45.30
2018-10-17T20:25:17.625Z,45.10
2018-10-17T20:27:46.474Z,45.70
2018-10-17T20:32:43.528Z,45.10
2018-10-17T20:35:12.854Z,45.50
2018-10-17T20:40:10.526Z,45.30
2018-10-17T20:42:39.217Z,45.20
2018-10-17T20:45:08.205Z,45.00
2018-10-17T20:47:36.893Z,45.50
2018-10-17T20:50:06.716Z,45.40
2018-10-17T20:52:35.355Z,45.60
2018-10-17T20:55:04.096Z,46.10
2018-10-17T20:57:32.836Z,46.50
2018-10-17T21:00:01.525Z,46.10
2018-10-17T21:02:30.225Z,46.50
2018-10-17T21:04:58.996Z,46.70
2018-10-17T21:07:29.955Z,46.40
2018-10-17T21:10:02.111Z,45.90
2018-10-17T21:12:31.628Z,46.50
2018-10-17T21:15:00.373Z,46.20
2018-10-17T21:17:29.383Z,46.30
2018-10-17T21:19:58.028Z,46.40
2018-10-17T21:22:26.574Z,46.30
2018-10-17T21:24:55.172Z,46.30
2018-10-17T21:27:23.744Z,46.10
2018-10-17T21:29:52.297Z,46.20
2018-10-17T21:32:20.928Z,46.20
2018-10-17T21:34:49.532Z,46.20
2018-10-17T21:37:18.102Z,46.10
2018-10-17T21:39:46.651Z,45.90
2018-10-17T21:42:15.244Z,45.90
2018-10-17T21:44:43.799Z,46.10
2018-10-17T21:47:12.404Z,46.10
2018-10-17T21:49:40.999Z,45.90
2018-10-17T21:52:09.559Z,45.70
2018-10-17T21:54:38.144Z,45.70
2018-10-17T21:57:07.132Z,45.70
2018-10-17T21:59:35.719Z,45.60
2018-10-17T22:02:04.455Z,45.70
2018-10-17T22:04:32.977Z,45.60
2018-10-17T22:07:01.548Z,45.50
2018-10-17T22:09:30.159Z,45.70
2018-10-17T22:11:58.724Z,45.80
2018-10-17T22:14:27.304Z,45.60
2018-10-17T22:17:01.144Z,45.50
2018-10-17T22:19:29.764Z,45.70
2018-10-17T22:21:58.323Z,45.50
2018-10-17T22:24:26.912Z,45.60
2018-10-17T22:26:55.487Z,46.20
2018-10-17T22:29:24.209Z,46.80
2018-10-17T22:31:53.060Z,46.50
2018-10-17T22:34:21.657Z,46.70
2018-10-17T22:36:50.243Z,47.20
2018-10-17T22:39:18.855Z,47.80
2018-10-17T22:41:47.460Z,48.30
2018-10-17T22:44:16.154Z,48.90
2018-10-17T22:46:44.651Z,49.40
2018-10-17T22:49:13.228Z,49.90
2018-10-17T22:51:42.254Z,50.40
2018-10-17T22:54:11.679Z,50.80
2018-10-17T22:56:40.733Z,51.20
2018-10-17T22:59:09.289Z,51.60
2018-10-17T23:01:38.302Z,51.90
2018-10-17T23:04:07.518Z,52.20
2018-10-17T23:06:36.158Z,52.40
2018-10-17T23:09:08.483Z,53.30
2018-10-17T23:11:37.041Z,53.10
2018-10-17T23:14:06.227Z,53.30
2018-10-17T23:16:35.141Z,53.40
2018-10-17T23:19:03.967Z,53.60
2018-10-17T23:21:32.580Z,53.70
2018-10-17T23:24:01.424Z,53.90
2018-10-17T23:26:30.000Z,54.00
2018-10-17T23:28:58.581Z,54.20
2018-10-17T23:31:27.149Z,54.30
2018-10-17T23:33:55.710Z,54.40
2018-10-17T23:36:24.369Z,54.50
2018-10-17T23:38:52.969Z,54.80
2018-10-17T23:41:22.121Z,55.20
2018-10-17T23:43:50.692Z,54.70
2018-10-17T23:46:19.307Z,54.80
2018-10-17T23:48:47.946Z,54.60
2018-10-17T23:51:16.544Z,54.80
2018-10-17T23:53:45.109Z,54.90
2018-10-17T23:56:13.772Z,54.90
2018-10-17T23:58:42.326Z,55.20
